Winslow, Texas
Current Conditions -  °F | °C
As of 10:15 AM on Thursday 29 Jan 2015 (Local Time) from KINJ Reporting Station
Clear Clear  
Wind Chill: 64°   Ceiling: Unl
Heat Index: 64°   Visibility: 10mi
Dew Point: 40°   Wind: 16mph
Humidity: 41%   Direction: 10°N
Pressure: 30.26"   Gusts: NA
Location:  32.0499°N, 97.1039°W
Report Text: KINJ 291615Z AUTO 01014KT 10SM CLR 18/05 A3026 RMK AO2 T01780045
Loading
Personal Weather Stations






























Interactive Weather Map New forecast layout! Learn more

10-Day Weather Forecast

Advertisements
Track Severe Weather on mobile